sensor_id;sensor_type;location;lat;lon;timestamp;pressure;altitude;pressure_sealevel;temperature;humidity
86048;BME280;76643;42.822;23.352;2024-02-21T00:01:22;96197.75;;;5.11;82.33
86048;BME280;76643;42.822;23.352;2024-02-21T00:03:47;96196.84;;;4.90;83.38
86048;BME280;76643;42.822;23.352;2024-02-21T00:06:12;96198.81;;;4.88;83.58
86048;BME280;76643;42.822;23.352;2024-02-21T00:08:38;96193.31;;;4.92;82.56
86048;BME280;76643;42.822;23.352;2024-02-21T00:11:03;96190.50;;;4.80;83.64
86048;BME280;76643;42.822;23.352;2024-02-21T00:13:29;96190.06;;;4.76;82.84
86048;BME280;76643;42.822;23.352;2024-02-21T00:15:54;96194.47;;;4.82;83.73
86048;BME280;76643;42.822;23.352;2024-02-21T00:18:20;96189.28;;;4.76;83.47
86048;BME280;76643;42.822;23.352;2024-02-21T00:20:45;96188.75;;;4.87;83.44
86048;BME280;76643;42.822;23.352;2024-02-21T00:23:10;96183.59;;;4.87;83.13
86048;BME280;76643;42.822;23.352;2024-02-21T00:25:36;96182.44;;;4.89;82.91
86048;BME280;76643;42.822;23.352;2024-02-21T00:28:01;96186.41;;;4.92;82.75
86048;BME280;76643;42.822;23.352;2024-02-21T00:30:27;96190.69;;;4.78;82.29
86048;BME280;76643;42.822;23.352;2024-02-21T00:32:52;96186.16;;;4.80;82.52
86048;BME280;76643;42.822;23.352;2024-02-21T00:35:18;96184.78;;;4.84;82.86
86048;BME280;76643;42.822;23.352;2024-02-21T00:37:43;96176.25;;;4.77;83.24
86048;BME280;76643;42.822;23.352;2024-02-21T00:40:09;96181.16;;;4.66;83.62
86048;BME280;76643;42.822;23.352;2024-02-21T00:42:34;96179.16;;;4.68;83.46
86048;BME280;76643;42.822;23.352;2024-02-21T00:44:59;96174.63;;;4.70;83.69
86048;BME280;76643;42.822;23.352;2024-02-21T00:47:25;96181.38;;;4.77;82.99
86048;BME280;76643;42.822;23.352;2024-02-21T00:49:50;96183.59;;;4.80;83.65
86048;BME280;76643;42.822;23.352;2024-02-21T00:52:16;96176.50;;;4.82;83.48
86048;BME280;76643;42.822;23.352;2024-02-21T00:54:41;96177.56;;;4.60;82.66
86048;BME280;76643;42.822;23.352;2024-02-21T00:57:06;96170.47;;;4.28;84.26
86048;BME280;76643;42.822;23.352;2024-02-21T00:59:32;96171.91;;;4.37;83.74
86048;BME280;76643;42.822;23.352;2024-02-21T01:01:57;96162.28;;;4.46;83.87
86048;BME280;76643;42.822;23.352;2024-02-21T01:04:22;96161.16;;;4.55;84.28
86048;BME280;76643;42.822;23.352;2024-02-21T01:06:49;96157.56;;;4.49;84.18
86048;BME280;76643;42.822;23.352;2024-02-21T01:09:15;96156.75;;;4.42;83.06
86048;BME280;76643;42.822;23.352;2024-02-21T01:11:40;96151.97;;;4.05;82.36
86048;BME280;76643;42.822;23.352;2024-02-21T01:14:05;96155.59;;;3.89;83.74
86048;BME280;76643;42.822;23.352;2024-02-21T01:16:31;96151.16;;;3.77;84.43
86048;BME280;76643;42.822;23.352;2024-02-21T01:18:56;96155.56;;;3.62;86.26
86048;BME280;76643;42.822;23.352;2024-02-21T01:21:22;96153.81;;;3.62;85.39
86048;BME280;76643;42.822;23.352;2024-02-21T01:23:48;96153.31;;;3.73;84.76
86048;BME280;76643;42.822;23.352;2024-02-21T01:26:13;96154.56;;;3.84;85.92
86048;BME280;76643;42.822;23.352;2024-02-21T01:28:41;96153.41;;;3.86;85.07
86048;BME280;76643;42.822;23.352;2024-02-21T01:31:06;96152.88;;;3.91;85.79
86048;BME280;76643;42.822;23.352;2024-02-21T01:33:32;96145.41;;;3.96;85.50
86048;BME280;76643;42.822;23.352;2024-02-21T01:36:03;96140.28;;;3.96;84.53
86048;BME280;76643;42.822;23.352;2024-02-21T01:38:28;96138.19;;;4.06;84.44
86048;BME280;76643;42.822;23.352;2024-02-21T01:40:54;96135.28;;;4.16;84.07
86048;BME280;76643;42.822;23.352;2024-02-21T01:43:20;96133.94;;;4.20;84.11
86048;BME280;76643;42.822;23.352;2024-02-21T01:45:50;96135.38;;;4.29;84.42
86048;BME280;76643;42.822;23.352;2024-02-21T01:48:17;96133.38;;;4.24;83.03
86048;BME280;76643;42.822;23.352;2024-02-21T01:50:44;96129.63;;;4.27;83.71
86048;BME280;76643;42.822;23.352;2024-02-21T01:53:10;96125.16;;;4.35;82.87
86048;BME280;76643;42.822;23.352;2024-02-21T01:55:43;96129.69;;;4.33;83.30
86048;BME280;76643;42.822;23.352;2024-02-21T01:58:09;96129.13;;;4.38;83.15
86048;BME280;76643;42.822;23.352;2024-02-21T02:00:36;96131.91;;;4.43;83.25
86048;BME280;76643;42.822;23.352;2024-02-21T02:03:02;96126.38;;;4.39;83.26
86048;BME280;76643;42.822;23.352;2024-02-21T02:05:29;96135.06;;;4.45;83.07
86048;BME280;76643;42.822;23.352;2024-02-21T02:07:54;96138.25;;;4.47;82.91
86048;BME280;76643;42.822;23.352;2024-02-21T02:10:19;96131.31;;;4.47;82.35
86048;BME280;76643;42.822;23.352;2024-02-21T02:12:45;96131.50;;;4.39;82.75
86048;BME280;76643;42.822;23.352;2024-02-21T02:15:10;96116.72;;;4.14;83.69
86048;BME280;76643;42.822;23.352;2024-02-21T02:17:35;96126.13;;;4.00;84.73
86048;BME280;76643;42.822;23.352;2024-02-21T02:20:01;96125.53;;;3.98;84.63
86048;BME280;76643;42.822;23.352;2024-02-21T02:22:31;96120.41;;;3.98;85.22
86048;BME280;76643;42.822;23.352;2024-02-21T02:25:01;96118.84;;;4.04;84.34
86048;BME280;76643;42.822;23.352;2024-02-21T02:27:26;96123.06;;;4.11;84.51
86048;BME280;76643;42.822;23.352;2024-02-21T02:29:52;96118.72;;;4.12;84.15
86048;BME280;76643;42.822;23.352;2024-02-21T02:32:17;96115.97;;;4.13;83.49
86048;BME280;76643;42.822;23.352;2024-02-21T02:34:43;96109.63;;;4.09;83.14
86048;BME280;76643;42.822;23.352;2024-02-21T02:37:08;96113.53;;;4.05;82.31
86048;BME280;76643;42.822;23.352;2024-02-21T02:39:34;96113.50;;;3.99;82.59
86048;BME280;76643;42.822;23.352;2024-02-21T02:41:59;96111.44;;;3.87;84.35
86048;BME280;76643;42.822;23.352;2024-02-21T02:44:25;96106.59;;;3.71;85.18
86048;BME280;76643;42.822;23.352;2024-02-21T02:46:50;96107.13;;;3.88;84.35
86048;BME280;76643;42.822;23.352;2024-02-21T02:49:15;96112.81;;;3.83;84.58
86048;BME280;76643;42.822;23.352;2024-02-21T02:51:44;96109.81;;;3.80;85.06
86048;BME280;76643;42.822;23.352;2024-02-21T02:54:10;96111.69;;;3.92;84.05
86048;BME280;76643;42.822;23.352;2024-02-21T02:56:36;96119.22;;;4.01;84.14
86048;BME280;76643;42.822;23.352;2024-02-21T02:59:01;96117.69;;;4.06;83.51
86048;BME280;76643;42.822;23.352;2024-02-21T03:01:26;96122.06;;;4.12;82.83
86048;BME280;76643;42.822;23.352;2024-02-21T03:03:52;96112.22;;;4.16;82.97
86048;BME280;76643;42.822;23.352;2024-02-21T03:06:18;96120.72;;;4.16;83.72
86048;BME280;76643;42.822;23.352;2024-02-21T03:08:43;96124.47;;;4.20;83.34
86048;BME280;76643;42.822;23.352;2024-02-21T03:11:08;96127.66;;;4.22;83.69
86048;BME280;76643;42.822;23.352;2024-02-21T03:13:34;96127.47;;;4.24;83.13
86048;BME280;76643;42.822;23.352;2024-02-21T03:15:59;96130.03;;;4.24;83.21
86048;BME280;76643;42.822;23.352;2024-02-21T03:18:25;96131.38;;;4.20;83.46
86048;BME280;76643;42.822;23.352;2024-02-21T03:20:50;96131.56;;;4.18;83.42
86048;BME280;76643;42.822;23.352;2024-02-21T03:23:15;96139.47;;;4.23;83.57
86048;BME280;76643;42.822;23.352;2024-02-21T03:25:41;96134.00;;;4.26;83.53
86048;BME280;76643;42.822;23.352;2024-02-21T03:28:06;96127.94;;;4.06;82.93
86048;BME280;76643;42.822;23.352;2024-02-21T03:30:32;96135.66;;;4.13;83.23
86048;BME280;76643;42.822;23.352;2024-02-21T03:32:58;96140.00;;;4.12;83.92
86048;BME280;76643;42.822;23.352;2024-02-21T03:35:24;96136.50;;;4.20;82.53
86048;BME280;76643;42.822;23.352;2024-02-21T03:37:52;96138.84;;;4.15;83.46
86048;BME280;76643;42.822;23.352;2024-02-21T03:40:17;96140.84;;;4.19;82.83
86048;BME280;76643;42.822;23.352;2024-02-21T03:42:42;96138.63;;;4.10;83.53
86048;BME280;76643;42.822;23.352;2024-02-21T03:45:08;96138.19;;;4.06;82.95
86048;BME280;76643;42.822;23.352;2024-02-21T03:47:34;96136.38;;;4.00;83.79
86048;BME280;76643;42.822;23.352;2024-02-21T03:49:59;96145.09;;;4.06;83.62
86048;BME280;76643;42.822;23.352;2024-02-21T03:52:25;96142.94;;;4.09;84.03
86048;BME280;76643;42.822;23.352;2024-02-21T03:54:50;96137.25;;;4.14;82.22
86048;BME280;76643;42.822;23.352;2024-02-21T03:57:16;96146.56;;;3.93;83.37
86048;BME280;76643;42.822;23.352;2024-02-21T03:59:42;96147.78;;;3.70;85.20
86048;BME280;76643;42.822;23.352;2024-02-21T04:02:08;96147.53;;;3.23;86.74
86048;BME280;76643;42.822;23.352;2024-02-21T04:04:34;96144.94;;;3.02;87.78
86048;BME280;76643;42.822;23.352;2024-02-21T04:07:02;96146.44;;;3.32;87.48
86048;BME280;76643;42.822;23.352;2024-02-21T04:09:32;96144.59;;;3.47;86.66
86048;BME280;76643;42.822;23.352;2024-02-21T04:11:58;96143.22;;;3.44;87.33
86048;BME280;76643;42.822;23.352;2024-02-21T04:14:23;96145.53;;;3.60;87.11
86048;BME280;76643;42.822;23.352;2024-02-21T04:16:48;96140.44;;;3.67;86.13
86048;BME280;76643;42.822;23.352;2024-02-21T04:19:14;96146.13;;;3.62;86.93
86048;BME280;76643;42.822;23.352;2024-02-21T04:21:39;96143.38;;;3.64;86.79
86048;BME280;76643;42.822;23.352;2024-02-21T04:24:04;96140.50;;;3.73;86.30
86048;BME280;76643;42.822;23.352;2024-02-21T04:26:30;96139.16;;;3.77;85.92
86048;BME280;76643;42.822;23.352;2024-02-21T04:28:56;96143.97;;;3.87;84.94
86048;BME280;76643;42.822;23.352;2024-02-21T04:31:21;96133.72;;;3.87;85.78
86048;BME280;76643;42.822;23.352;2024-02-21T04:33:46;96146.22;;;3.97;85.10
86048;BME280;76643;42.822;23.352;2024-02-21T04:36:12;96146.44;;;4.02;85.32
86048;BME280;76643;42.822;23.352;2024-02-21T04:38:37;96142.13;;;4.09;84.61
86048;BME280;76643;42.822;23.352;2024-02-21T04:41:04;96142.56;;;4.12;84.60
86048;BME280;76643;42.822;23.352;2024-02-21T04:43:29;96142.53;;;4.06;82.92
86048;BME280;76643;42.822;23.352;2024-02-21T04:45:55;96147.28;;;4.09;83.77
86048;BME280;76643;42.822;23.352;2024-02-21T04:48:20;96154.34;;;4.07;83.19
86048;BME280;76643;42.822;23.352;2024-02-21T04:50:46;96154.00;;;4.10;83.75
86048;BME280;76643;42.822;23.352;2024-02-21T04:53:11;96148.47;;;4.13;83.06
86048;BME280;76643;42.822;23.352;2024-02-21T04:55:36;96151.44;;;4.10;81.66
86048;BME280;76643;42.822;23.352;2024-02-21T04:58:02;96150.03;;;4.07;82.81
86048;BME280;76643;42.822;23.352;2024-02-21T05:00:28;96149.81;;;4.02;83.05
86048;BME280;76643;42.822;23.352;2024-02-21T05:02:53;96148.81;;;4.03;83.28
86048;BME280;76643;42.822;23.352;2024-02-21T05:05:19;96144.47;;;4.04;83.06
86048;BME280;76643;42.822;23.352;2024-02-21T05:07:44;96147.66;;;4.06;83.11
86048;BME280;76643;42.822;23.352;2024-02-21T05:10:09;96149.59;;;4.04;82.78
86048;BME280;76643;42.822;23.352;2024-02-21T05:12:35;96156.31;;;4.05;83.13
86048;BME280;76643;42.822;23.352;2024-02-21T05:15:01;96158.88;;;4.05;82.06
86048;BME280;76643;42.822;23.352;2024-02-21T05:17:26;96156.47;;;3.97;82.38
86048;BME280;76643;42.822;23.352;2024-02-21T05:19:51;96159.19;;;3.95;82.73
86048;BME280;76643;42.822;23.352;2024-02-21T05:22:17;96161.19;;;4.00;82.74
86048;BME280;76643;42.822;23.352;2024-02-21T05:24:42;96159.78;;;3.97;82.73
86048;BME280;76643;42.822;23.352;2024-02-21T05:27:08;96163.56;;;4.01;81.84
86048;BME280;76643;42.822;23.352;2024-02-21T05:29:33;96157.28;;;4.04;82.45
86048;BME280;76643;42.822;23.352;2024-02-21T05:31:59;96162.00;;;4.00;81.92
86048;BME280;76643;42.822;23.352;2024-02-21T05:34:25;96160.59;;;3.98;83.02
86048;BME280;76643;42.822;23.352;2024-02-21T05:36:51;96155.88;;;4.01;82.55
86048;BME280;76643;42.822;23.352;2024-02-21T05:39:17;96149.38;;;3.99;82.77
86048;BME280;76643;42.822;23.352;2024-02-21T05:41:42;96155.28;;;3.99;82.55
86048;BME280;76643;42.822;23.352;2024-02-21T05:44:08;96161.94;;;3.93;82.30
86048;BME280;76643;42.822;23.352;2024-02-21T05:46:33;96165.91;;;3.96;82.18
86048;BME280;76643;42.822;23.352;2024-02-21T05:48:59;96163.25;;;3.83;80.81
86048;BME280;76643;42.822;23.352;2024-02-21T05:51:24;96175.75;;;3.71;81.25
86048;BME280;76643;42.822;23.352;2024-02-21T05:53:49;96174.34;;;3.69;82.65
86048;BME280;76643;42.822;23.352;2024-02-21T05:56:15;96170.94;;;3.83;82.53
86048;BME280;76643;42.822;23.352;2024-02-21T05:58:42;96171.53;;;3.85;82.95
86048;BME280;76643;42.822;23.352;2024-02-21T06:01:07;96182.00;;;3.90;82.81
86048;BME280;76643;42.822;23.352;2024-02-21T06:03:33;96183.84;;;3.96;83.22
86048;BME280;76643;42.822;23.352;2024-02-21T06:06:00;96178.41;;;4.06;84.16
86048;BME280;76643;42.822;23.352;2024-02-21T06:08:26;96184.34;;;4.13;83.73
86048;BME280;76643;42.822;23.352;2024-02-21T06:10:51;96184.41;;;4.19;82.77
86048;BME280;76643;42.822;23.352;2024-02-21T06:13:23;96180.44;;;4.17;83.00
86048;BME280;76643;42.822;23.352;2024-02-21T06:15:48;96185.19;;;4.20;83.46
86048;BME280;76643;42.822;23.352;2024-02-21T06:18:16;96184.50;;;4.32;82.82
86048;BME280;76643;42.822;23.352;2024-02-21T06:20:42;96192.19;;;4.32;82.96
86048;BME280;76643;42.822;23.352;2024-02-21T06:23:08;96196.56;;;4.38;82.20
86048;BME280;76643;42.822;23.352;2024-02-21T06:25:34;96199.38;;;4.43;83.35
86048;BME280;76643;42.822;23.352;2024-02-21T06:27:59;96204.84;;;4.40;83.09
86048;BME280;76643;42.822;23.352;2024-02-21T06:30:24;96204.09;;;4.46;82.95
86048;BME280;76643;42.822;23.352;2024-02-21T06:32:50;96207.97;;;4.63;83.63
86048;BME280;76643;42.822;23.352;2024-02-21T06:35:15;96210.22;;;4.79;82.61
86048;BME280;76643;42.822;23.352;2024-02-21T06:37:42;96208.03;;;4.76;82.09
86048;BME280;76643;42.822;23.352;2024-02-21T06:40:07;96215.34;;;4.79;82.91
86048;BME280;76643;42.822;23.352;2024-02-21T06:42:33;96215.25;;;4.94;81.83
86048;BME280;76643;42.822;23.352;2024-02-21T06:44:58;96224.91;;;4.99;82.66
86048;BME280;76643;42.822;23.352;2024-02-21T06:47:24;96224.81;;;5.20;81.15
86048;BME280;76643;42.822;23.352;2024-02-21T06:49:50;96222.25;;;5.20;82.58
86048;BME280;76643;42.822;23.352;2024-02-21T06:52:17;96222.28;;;5.33;80.23
86048;BME280;76643;42.822;23.352;2024-02-21T06:54:48;96226.03;;;5.30;81.52
86048;BME280;76643;42.822;23.352;2024-02-21T06:57:13;96216.00;;;5.42;79.92
86048;BME280;76643;42.822;23.352;2024-02-21T06:59:40;96219.97;;;5.44;80.64
86048;BME280;76643;42.822;23.352;2024-02-21T07:02:05;96218.41;;;5.56;79.01
86048;BME280;76643;42.822;23.352;2024-02-21T07:04:30;96224.75;;;5.54;79.95
86048;BME280;76643;42.822;23.352;2024-02-21T07:06:56;96222.97;;;5.61;80.01
86048;BME280;76643;42.822;23.352;2024-02-21T07:09:21;96222.59;;;5.77;78.75
86048;BME280;76643;42.822;23.352;2024-02-21T07:11:47;96221.84;;;5.90;78.78
86048;BME280;76643;42.822;23.352;2024-02-21T07:14:14;96222.81;;;5.82;77.87
86048;BME280;76643;42.822;23.352;2024-02-21T07:16:40;96225.72;;;5.53;79.23
86048;BME280;76643;42.822;23.352;2024-02-21T07:19:06;96223.38;;;5.64;79.23
86048;BME280;76643;42.822;23.352;2024-02-21T07:21:31;96220.44;;;5.74;77.80
86048;BME280;76643;42.822;23.352;2024-02-21T07:23:56;96221.75;;;5.50;79.99
86048;BME280;76643;42.822;23.352;2024-02-21T07:26:22;96224.34;;;5.63;77.67
86048;BME280;76643;42.822;23.352;2024-02-21T07:28:47;96228.47;;;5.58;81.27
86048;BME280;76643;42.822;23.352;2024-02-21T07:31:13;96234.63;;;5.57;78.80
86048;BME280;76643;42.822;23.352;2024-02-21T07:33:38;96229.56;;;5.83;75.74
86048;BME280;76643;42.822;23.352;2024-02-21T07:36:10;96229.50;;;5.70;76.28
86048;BME280;76643;42.822;23.352;2024-02-21T07:38:36;96224.97;;;5.72;76.29
86048;BME280;76643;42.822;23.352;2024-02-21T07:41:02;96221.00;;;5.69;75.64
86048;BME280;76643;42.822;23.352;2024-02-21T07:43:29;96227.91;;;5.69;76.10
86048;BME280;76643;42.822;23.352;2024-02-21T07:45:54;96222.59;;;5.77;75.86
86048;BME280;76643;42.822;23.352;2024-02-21T07:48:21;96220.03;;;5.77;76.12
86048;BME280;76643;42.822;23.352;2024-02-21T07:50:49;96221.84;;;5.90;76.06
86048;BME280;76643;42.822;23.352;2024-02-21T07:53:15;96213.94;;;5.84;76.86
86048;BME280;76643;42.822;23.352;2024-02-21T07:55:40;96218.88;;;5.86;77.48
86048;BME280;76643;42.822;23.352;2024-02-21T07:58:05;96218.88;;;5.86;75.98
86048;BME280;76643;42.822;23.352;2024-02-21T08:00:31;96223.03;;;5.94;76.75
86048;BME280;76643;42.822;23.352;2024-02-21T08:02:57;96217.53;;;6.10;78.08
86048;BME280;76643;42.822;23.352;2024-02-21T08:05:22;96213.75;;;6.38;77.62
86048;BME280;76643;42.822;23.352;2024-02-21T08:07:48;96212.53;;;6.67;73.59
86048;BME280;76643;42.822;23.352;2024-02-21T08:10:13;96205.16;;;6.83;71.79
86048;BME280;76643;42.822;23.352;2024-02-21T08:12:39;96211.28;;;6.96;71.32
86048;BME280;76643;42.822;23.352;2024-02-21T08:15:05;96207.19;;;7.26;70.57
86048;BME280;76643;42.822;23.352;2024-02-21T08:17:30;96215.47;;;7.41;68.38
86048;BME280;76643;42.822;23.352;2024-02-21T08:19:56;96207.13;;;7.39;69.44
86048;BME280;76643;42.822;23.352;2024-02-21T08:22:21;96215.25;;;7.36;67.92
86048;BME280;76643;42.822;23.352;2024-02-21T08:24:47;96210.59;;;7.20;67.57
86048;BME280;76643;42.822;23.352;2024-02-21T08:27:12;96212.09;;;7.34;68.70
86048;BME280;76643;42.822;23.352;2024-02-21T08:29:37;96202.94;;;7.44;70.05
86048;BME280;76643;42.822;23.352;2024-02-21T08:32:03;96210.56;;;7.64;70.64
86048;BME280;76643;42.822;23.352;2024-02-21T08:34:28;96203.34;;;7.79;68.74
86048;BME280;76643;42.822;23.352;2024-02-21T08:36:55;96201.03;;;7.96;67.80
86048;BME280;76643;42.822;23.352;2024-02-21T08:39:21;96203.44;;;7.97;68.65
86048;BME280;76643;42.822;23.352;2024-02-21T08:41:46;96211.66;;;8.12;68.17
86048;BME280;76643;42.822;23.352;2024-02-21T08:44:11;96205.53;;;8.31;66.25
86048;BME280;76643;42.822;23.352;2024-02-21T08:46:37;96205.75;;;8.30;65.11
86048;BME280;76643;42.822;23.352;2024-02-21T08:49:05;96203.16;;;8.05;69.19
86048;BME280;76643;42.822;23.352;2024-02-21T08:51:31;96200.47;;;8.18;68.54
86048;BME280;76643;42.822;23.352;2024-02-21T08:53:58;96206.22;;;8.20;66.78
86048;BME280;76643;42.822;23.352;2024-02-21T08:56:23;96203.03;;;8.18;68.36
86048;BME280;76643;42.822;23.352;2024-02-21T08:58:49;96204.34;;;8.34;67.29
86048;BME280;76643;42.822;23.352;2024-02-21T09:01:15;96203.59;;;7.96;69.06
86048;BME280;76643;42.822;23.352;2024-02-21T09:03:40;96207.78;;;7.97;69.02
86048;BME280;76643;42.822;23.352;2024-02-21T09:06:06;96211.78;;;7.61;69.16
86048;BME280;76643;42.822;23.352;2024-02-21T09:08:32;96206.56;;;7.68;69.14
86048;BME280;76643;42.822;23.352;2024-02-21T09:10:57;96203.41;;;7.66;67.72
86048;BME280;76643;42.822;23.352;2024-02-21T09:13:23;96206.56;;;7.74;67.85
86048;BME280;76643;42.822;23.352;2024-02-21T09:15:49;96205.69;;;7.80;68.18
86048;BME280;76643;42.822;23.352;2024-02-21T09:18:15;96209.72;;;7.76;66.71
86048;BME280;76643;42.822;23.352;2024-02-21T09:20:41;96200.50;;;7.87;67.01
86048;BME280;76643;42.822;23.352;2024-02-21T09:23:06;96205.22;;;7.90;67.11
86048;BME280;76643;42.822;23.352;2024-02-21T09:25:32;96197.34;;;7.85;63.33
86048;BME280;76643;42.822;23.352;2024-02-21T09:27:57;96205.00;;;7.98;65.20
86048;BME280;76643;42.822;23.352;2024-02-21T09:30:24;96198.44;;;7.96;64.43
86048;BME280;76643;42.822;23.352;2024-02-21T09:32:49;96207.72;;;8.03;64.35
86048;BME280;76643;42.822;23.352;2024-02-21T09:35:14;96204.78;;;8.00;66.71
86048;BME280;76643;42.822;23.352;2024-02-21T09:37:40;96208.31;;;8.05;65.44
86048;BME280;76643;42.822;23.352;2024-02-21T09:40:06;96205.22;;;7.97;65.38
86048;BME280;76643;42.822;23.352;2024-02-21T09:42:38;96205.31;;;8.08;65.17
86048;BME280;76643;42.822;23.352;2024-02-21T09:45:22;96200.56;;;8.36;63.31
86048;BME280;76643;42.822;23.352;2024-02-21T09:50:32;96195.66;;;8.53;62.63
86048;BME280;76643;42.822;23.352;2024-02-21T09:53:00;96192.28;;;9.07;61.71
86048;BME280;76643;42.822;23.352;2024-02-21T09:55:29;96190.03;;;9.28;57.60
86048;BME280;76643;42.822;23.352;2024-02-21T09:57:58;96184.16;;;9.21;59.17
86048;BME280;76643;42.822;23.352;2024-02-21T10:00:24;96194.09;;;8.70;58.95
86048;BME280;76643;42.822;23.352;2024-02-21T10:02:49;96189.84;;;9.12;59.95
86048;BME280;76643;42.822;23.352;2024-02-21T10:05:15;96192.75;;;8.43;59.68
86048;BME280;76643;42.822;23.352;2024-02-21T10:07:41;96194.44;;;9.10;59.32
86048;BME280;76643;42.822;23.352;2024-02-21T10:10:07;96188.34;;;9.04;57.27
86048;BME280;76643;42.822;23.352;2024-02-21T10:12:32;96185.50;;;9.42;58.11
86048;BME280;76643;42.822;23.352;2024-02-21T10:15:05;96181.66;;;9.74;58.88
86048;BME280;76643;42.822;23.352;2024-02-21T10:17:34;96173.06;;;10.03;57.61
86048;BME280;76643;42.822;23.352;2024-02-21T10:20:09;96172.41;;;10.08;54.58
86048;BME280;76643;42.822;23.352;2024-02-21T10:22:35;96166.66;;;10.06;56.29
86048;BME280;76643;42.822;23.352;2024-02-21T10:25:11;96160.97;;;9.33;55.56
86048;BME280;76643;42.822;23.352;2024-02-21T10:27:38;96161.63;;;9.69;57.84
86048;BME280;76643;42.822;23.352;2024-02-21T10:30:08;96155.03;;;9.85;57.54
86048;BME280;76643;42.822;23.352;2024-02-21T10:32:33;96152.69;;;9.84;57.54
86048;BME280;76643;42.822;23.352;2024-02-21T10:35:03;96145.38;;;9.81;56.22
86048;BME280;76643;42.822;23.352;2024-02-21T10:37:31;96144.47;;;9.75;57.13
86048;BME280;76643;42.822;23.352;2024-02-21T10:40:00;96139.41;;;9.80;57.05
86048;BME280;76643;42.822;23.352;2024-02-21T10:42:29;96127.03;;;9.70;55.88
86048;BME280;76643;42.822;23.352;2024-02-21T10:45:00;96122.75;;;9.76;56.12
86048;BME280;76643;42.822;23.352;2024-02-21T10:47:28;96122.84;;;9.28;54.07
86048;BME280;76643;42.822;23.352;2024-02-21T10:50:02;96114.03;;;9.47;56.96
86048;BME280;76643;42.822;23.352;2024-02-21T10:55:10;96102.34;;;10.09;54.80
86048;BME280;76643;42.822;23.352;2024-02-21T10:57:39;96096.81;;;9.94;53.11
86048;BME280;76643;42.822;23.352;2024-02-21T11:00:05;96095.09;;;9.65;53.05
86048;BME280;76643;42.822;23.352;2024-02-21T11:02:33;96093.19;;;9.72;53.78
86048;BME280;76643;42.822;23.352;2024-02-21T11:05:01;96084.84;;;9.70;52.64
86048;BME280;76643;42.822;23.352;2024-02-21T11:07:29;96074.09;;;10.08;53.30
86048;BME280;76643;42.822;23.352;2024-02-21T11:09:57;96077.91;;;10.05;51.78
86048;BME280;76643;42.822;23.352;2024-02-21T11:12:24;96081.97;;;9.90;53.05
86048;BME280;76643;42.822;23.352;2024-02-21T11:14:50;96087.25;;;9.95;52.16
86048;BME280;76643;42.822;23.352;2024-02-21T11:17:20;96074.97;;;9.90;52.83
86048;BME280;76643;42.822;23.352;2024-02-21T11:19:52;96076.81;;;10.01;53.91
86048;BME280;76643;42.822;23.352;2024-02-21T11:22:18;96077.47;;;9.85;55.10
86048;BME280;76643;42.822;23.352;2024-02-21T11:24:45;96078.56;;;9.78;54.14
86048;BME280;76643;42.822;23.352;2024-02-21T11:27:14;96071.50;;;9.96;54.46
86048;BME280;76643;42.822;23.352;2024-02-21T11:29:44;96067.13;;;10.08;54.10
86048;BME280;76643;42.822;23.352;2024-02-21T11:32:10;96070.59;;;9.79;54.06
86048;BME280;76643;42.822;23.352;2024-02-21T11:34:36;96062.06;;;9.79;53.73
86048;BME280;76643;42.822;23.352;2024-02-21T11:37:13;96057.56;;;9.74;52.82
86048;BME280;76643;42.822;23.352;2024-02-21T11:39:40;96053.63;;;9.83;52.74
86048;BME280;76643;42.822;23.352;2024-02-21T11:42:06;96065.44;;;9.67;53.85
86048;BME280;76643;42.822;23.352;2024-02-21T11:44:36;96057.88;;;9.54;52.78
86048;BME280;76643;42.822;23.352;2024-02-21T11:47:06;96060.09;;;9.51;53.30
86048;BME280;76643;42.822;23.352;2024-02-21T11:49:37;96058.66;;;9.55;54.26
86048;BME280;76643;42.822;23.352;2024-02-21T11:52:05;96050.03;;;9.73;56.36
86048;BME280;76643;42.822;23.352;2024-02-21T11:54:31;96043.28;;;9.60;53.12
86048;BME280;76643;42.822;23.352;2024-02-21T11:56:56;96046.19;;;9.52;54.22
86048;BME280;76643;42.822;23.352;2024-02-21T11:59:25;96042.25;;;9.61;54.57
86048;BME280;76643;42.822;23.352;2024-02-21T12:01:50;96043.28;;;9.60;55.46
86048;BME280;76643;42.822;23.352;2024-02-21T12:04:20;96037.19;;;9.54;55.74
86048;BME280;76643;42.822;23.352;2024-02-21T12:06:45;96032.22;;;9.53;54.86
86048;BME280;76643;42.822;23.352;2024-02-21T12:09:14;96035.06;;;9.63;55.41
86048;BME280;76643;42.822;23.352;2024-02-21T12:11:41;96023.47;;;9.54;54.55
86048;BME280;76643;42.822;23.352;2024-02-21T12:14:06;96030.91;;;9.50;54.97
86048;BME280;76643;42.822;23.352;2024-02-21T12:16:32;96037.41;;;9.53;54.03
86048;BME280;76643;42.822;23.352;2024-02-21T12:19:01;96031.47;;;9.52;54.21
86048;BME280;76643;42.822;23.352;2024-02-21T12:21:29;96031.56;;;9.46;53.15
86048;BME280;76643;42.822;23.352;2024-02-21T12:23:55;96031.09;;;9.37;54.01
86048;BME280;76643;42.822;23.352;2024-02-21T12:26:21;96033.44;;;9.27;56.21
86048;BME280;76643;42.822;23.352;2024-02-21T12:28:46;96044.09;;;8.90;58.86
86048;BME280;76643;42.822;23.352;2024-02-21T12:31:12;96041.44;;;8.66;61.76
86048;BME280;76643;42.822;23.352;2024-02-21T12:33:38;96042.81;;;8.51;62.05
86048;BME280;76643;42.822;23.352;2024-02-21T12:36:04;96045.41;;;8.33;63.81
86048;BME280;76643;42.822;23.352;2024-02-21T12:38:29;96046.97;;;8.34;65.34
86048;BME280;76643;42.822;23.352;2024-02-21T12:40:55;96035.13;;;8.26;67.33
86048;BME280;76643;42.822;23.352;2024-02-21T12:43:22;96036.53;;;8.22;66.51
86048;BME280;76643;42.822;23.352;2024-02-21T12:45:47;96040.53;;;8.25;67.10
86048;BME280;76643;42.822;23.352;2024-02-21T12:48:13;96025.16;;;8.30;68.12
86048;BME280;76643;42.822;23.352;2024-02-21T12:50:39;96030.28;;;8.36;68.07
86048;BME280;76643;42.822;23.352;2024-02-21T12:53:05;96027.81;;;8.41;67.28
86048;BME280;76643;42.822;23.352;2024-02-21T12:55:31;96029.25;;;8.37;67.07
86048;BME280;76643;42.822;23.352;2024-02-21T12:57:56;96033.03;;;8.35;64.35
86048;BME280;76643;42.822;23.352;2024-02-21T13:00:28;96032.97;;;8.41;64.99